Time;durP1;ratioP1;P1;durP2;ratioP2;P2;SDS_P1;SDS_P2;PMS_P1;PMS_P2;Temp;Humidity;BMP_temperature;BMP_pressure;BME280_temperature;BME280_humidity;BME280_pressure;Samples;Min_cycle;Max_cycle;Signal;HPM_P1;HPM_P2
2024/04/17 00:01:54;;;;;;;2.88;1.52;;;7.50;99.90;;;;;;5490906;26;20030;-76
2024/04/17 00:04:21;;;;;;;2.50;1.48;;;7.50;99.90;;;;;;5490929;26;20484;-77
2024/04/17 00:06:47;;;;;;;5.00;1.42;;;7.50;99.90;;;;;;5489840;26;20030;-76
2024/04/17 00:09:13;;;;;;;1.70;1.30;;;7.50;99.90;;;;;;5490671;26;20026;-76
2024/04/17 00:11:39;;;;;;;1.98;1.10;;;7.40;99.90;;;;;;5488545;26;20033;-76
2024/04/17 00:14:05;;;;;;;1.30;0.90;;;7.50;99.90;;;;;;5489853;26;20484;-77
2024/04/17 00:16:32;;;;;;;1.50;0.90;;;7.50;99.90;;;;;;5490210;26;20022;-76
2024/04/17 00:18:58;;;;;;;1.98;1.20;;;7.50;99.90;;;;;;5490209;26;20042;-77
2024/04/17 00:21:24;;;;;;;1.58;1.08;;;7.40;99.90;;;;;;5490256;26;20026;-77
2024/04/17 00:23:51;;;;;;;1.50;1.10;;;7.50;99.90;;;;;;5489399;26;20031;-77
2024/04/17 00:26:17;;;;;;;1.60;1.00;;;7.50;99.90;;;;;;5489824;26;20034;-76
2024/04/17 00:28:43;;;;;;;2.20;1.10;;;7.60;99.90;;;;;;5490333;26;20026;-76
2024/04/17 00:31:09;;;;;;;2.05;1.30;;;7.60;99.90;;;;;;5489703;26;20370;-76
2024/04/17 00:33:35;;;;;;;1.83;1.08;;;7.50;99.90;;;;;;5490614;26;20363;-76
2024/04/17 00:36:02;;;;;;;1.52;1.13;;;7.50;99.90;;;;;;5489510;26;20345;-76
2024/04/17 00:38:29;;;;;;;1.48;0.88;;;7.50;99.90;;;;;;5489712;26;20030;-73
2024/04/17 00:40:56;;;;;;;1.20;1.00;;;7.60;99.90;;;;;;5489280;26;20023;-77
2024/04/17 00:43:23;;;;;;;1.27;0.80;;;7.60;99.90;;;;;;5489802;26;20480;-76
2024/04/17 00:45:49;;;;;;;1.50;1.10;;;7.60;99.90;;;;;;5490161;26;20030;-77
2024/04/17 00:48:15;;;;;;;1.33;0.85;;;7.60;99.90;;;;;;5489427;26;20026;-76
2024/04/17 00:50:46;;;;;;;1.45;0.77;;;7.50;99.90;;;;;;5489526;26;20369;-75
2024/04/17 00:53:19;;;;;;;1.67;1.00;;;7.50;99.90;;;;;;5490066;26;20026;-76
2024/04/17 00:55:47;;;;;;;2.85;0.90;;;7.60;99.90;;;;;;5489718;26;20512;-74
2024/04/17 00:58:14;;;;;;;1.30;0.88;;;7.60;99.90;;;;;;5489681;26;20038;-74
2024/04/17 01:00:41;;;;;;;1.50;0.73;;;7.60;99.90;;;;;;5489033;26;20038;-74
2024/04/17 01:03:07;;;;;;;1.77;0.90;;;7.50;99.90;;;;;;5488603;26;20026;-74
2024/04/17 01:05:33;;;;;;;1.88;0.85;;;7.60;99.90;;;;;;5488811;26;20026;-74
2024/04/17 01:08:00;;;;;;;2.20;1.10;;;7.60;99.90;;;;;;5489374;26;20489;-74
2024/04/17 01:10:26;;;;;;;1.23;0.90;;;7.60;99.90;;;;;;5489715;26;20030;-74
2024/04/17 01:12:53;;;;;;;0.90;0.70;;;7.50;99.90;;;;;;5487921;26;20034;-73
2024/04/17 01:15:21;;;;;;;1.30;0.95;;;7.50;99.90;;;;;;5489793;26;20018;-74
2024/04/17 01:17:48;;;;;;;1.42;1.10;;;7.40;99.90;;;;;;5488682;26;20022;-74
2024/04/17 01:20:14;;;;;;;1.75;0.85;;;7.40;99.90;;;;;;5486918;26;20022;-74
2024/04/17 01:22:40;;;;;;;1.42;1.00;;;7.30;99.90;;;;;;5489560;26;20019;-73
2024/04/17 01:25:07;;;;;;;1.80;1.20;;;7.40;99.90;;;;;;5489313;26;20018;-73
2024/04/17 01:27:33;;;;;;;1.40;0.93;;;7.30;99.90;;;;;;5487148;26;20019;-74
2024/04/17 01:29:59;;;;;;;1.77;0.88;;;7.40;99.90;;;;;;5488887;26;20026;-74
2024/04/17 01:32:25;;;;;;;1.35;0.82;;;7.30;99.90;;;;;;5489189;26;20019;-75
2024/04/17 01:34:51;;;;;;;1.75;1.00;;;7.40;99.90;;;;;;5488641;26;20030;-74
2024/04/17 01:37:18;;;;;;;1.42;1.00;;;7.30;99.90;;;;;;5489237;26;20027;-75
2024/04/17 01:39:44;;;;;;;1.67;1.10;;;7.40;99.90;;;;;;5489490;26;20022;-74
2024/04/17 01:42:10;;;;;;;5.32;1.10;;;7.40;99.90;;;;;;5492072;26;20035;-75
2024/04/17 01:44:36;;;;;;;1.27;0.85;;;7.40;99.90;;;;;;5492414;26;20022;-75
2024/04/17 01:47:02;;;;;;;2.20;0.88;;;7.40;99.90;;;;;;5492858;26;20094;-75
2024/04/17 01:49:29;;;;;;;4.05;1.10;;;7.40;99.90;;;;;;5491074;26;20030;-75
2024/04/17 01:51:55;;;;;;;2.28;1.17;;;7.30;99.90;;;;;;5492496;26;20018;-75
2024/04/17 01:54:21;;;;;;;1.42;1.00;;;7.30;99.90;;;;;;5492694;26;20018;-75
2024/04/17 01:56:48;;;;;;;2.88;0.90;;;7.30;99.90;;;;;;5492819;26;20472;-75
2024/04/17 01:59:15;;;;;;;2.22;0.98;;;7.30;99.90;;;;;;5492466;26;20025;-72
2024/04/17 02:01:41;;;;;;;1.65;1.00;;;7.30;99.90;;;;;;5492230;26;20480;-75
2024/04/17 02:04:07;;;;;;;3.17;1.00;;;7.40;99.90;;;;;;5489552;26;20360;-75
2024/04/17 02:06:34;;;;;;;2.22;1.27;;;7.40;99.90;;;;;;5492502;26;20018;-75
2024/04/17 02:09:00;;;;;;;2.45;1.15;;;7.40;99.90;;;;;;5491924;26;20026;-75
2024/04/17 02:11:26;;;;;;;1.88;1.17;;;7.30;99.90;;;;;;5492187;26;20040;-75
2024/04/17 02:13:52;;;;;;;2.50;1.17;;;7.30;99.90;;;;;;5492053;26;20031;-75
2024/04/17 02:16:18;;;;;;;1.17;0.82;;;7.40;99.90;;;;;;5491953;26;20026;-75
2024/04/17 02:18:45;;;;;;;1.02;0.88;;;7.30;99.90;;;;;;5491619;26;20022;-75
2024/04/17 02:21:11;;;;;;;2.67;1.20;;;7.30;99.90;;;;;;5455340;26;20360;-78
2024/04/17 02:23:37;;;;;;;1.80;1.17;;;7.30;99.90;;;;;;5456254;26;20464;-78
2024/04/17 02:26:03;;;;;;;1.55;1.20;;;7.30;99.90;;;;;;5474204;26;20363;-78
2024/04/17 02:28:29;;;;;;;1.83;1.25;;;7.30;99.90;;;;;;5490355;26;20022;-78
2024/04/17 02:30:56;;;;;;;1.67;1.02;;;7.30;99.90;;;;;;5491492;26;20018;-78
2024/04/17 02:33:22;;;;;;;3.42;1.17;;;7.30;99.90;;;;;;5491639;26;20021;-78
2024/04/17 02:35:48;;;;;;;1.45;0.90;;;7.30;99.90;;;;;;5491322;26;20460;-79
2024/04/17 02:38:15;;;;;;;1.48;1.00;;;7.20;99.90;;;;;;5490259;26;20022;-78
2024/04/17 02:40:41;;;;;;;2.30;1.30;;;7.10;99.90;;;;;;5492138;26;20032;-78
2024/04/17 02:43:07;;;;;;;2.13;1.10;;;7.10;99.90;;;;;;5491283;26;20030;-78
2024/04/17 02:45:33;;;;;;;1.88;1.20;;;6.90;99.90;;;;;;5492301;26;20034;-79
2024/04/17 02:48:00;;;;;;;3.15;1.50;;;6.80;99.90;;;;;;5491594;26;20022;-78
2024/04/17 02:50:26;;;;;;;1.83;1.30;;;6.70;99.90;;;;;;5490915;26;20022;-78
2024/04/17 02:52:52;;;;;;;1.80;1.00;;;6.70;99.90;;;;;;5491515;26;20476;-78
2024/04/17 02:55:18;;;;;;;1.70;1.13;;;6.70;99.90;;;;;;5491155;26;20022;-79
2024/04/17 02:57:45;;;;;;;2.08;1.42;;;6.80;99.90;;;;;;5490763;26;20018;-78
2024/04/17 03:00:11;;;;;;;2.35;1.25;;;6.80;99.90;;;;;;5491018;26;20018;-78
2024/04/17 03:02:37;;;;;;;1.58;1.20;;;6.90;99.90;;;;;;5491077;26;20468;-78
2024/04/17 03:05:04;;;;;;;2.20;1.30;;;6.70;99.90;;;;;;5490991;26;20363;-78
2024/04/17 03:07:31;;;;;;;3.05;1.40;;;6.70;99.90;;;;;;5491482;26;20022;-75
2024/04/17 03:09:57;;;;;;;5.10;1.60;;;6.70;99.90;;;;;;5491570;26;20031;-75
2024/04/17 03:12:24;;;;;;;3.70;1.70;;;6.70;99.90;;;;;;5490623;26;20472;-75
2024/04/17 03:14:50;;;;;;;4.03;1.80;;;6.70;99.90;;;;;;5491090;26;20022;-74
2024/04/17 03:17:16;;;;;;;4.03;1.60;;;6.80;99.90;;;;;;5489343;26;20015;-75
2024/04/17 03:19:42;;;;;;;3.92;2.08;;;6.80;99.90;;;;;;5488985;26;20034;-76
2024/04/17 03:22:08;;;;;;;3.45;1.80;;;6.70;99.90;;;;;;5491434;26;20465;-75
2024/04/17 03:24:35;;;;;;;2.65;1.52;;;6.60;99.90;;;;;;5489123;26;20026;-76
2024/04/17 03:27:01;;;;;;;2.72;1.75;;;6.50;99.90;;;;;;5490895;26;20022;-77
2024/04/17 03:29:27;;;;;;;2.53;1.50;;;6.50;99.90;;;;;;5490481;26;20035;-78
2024/04/17 03:31:53;;;;;;;2.20;1.25;;;6.50;99.90;;;;;;5491340;26;20030;-77
2024/04/17 03:34:19;;;;;;;2.63;1.50;;;6.40;99.90;;;;;;5490503;26;20030;-78
2024/04/17 03:36:45;;;;;;;3.45;1.80;;;6.40;99.90;;;;;;5491137;26;20022;-76
2024/04/17 03:39:12;;;;;;;2.50;1.38;;;6.40;99.90;;;;;;5491228;26;20031;-76
2024/04/17 03:41:38;;;;;;;2.03;1.45;;;6.40;99.90;;;;;;5491132;26;20022;-76
2024/04/17 03:44:04;;;;;;;3.45;1.60;;;6.40;99.90;;;;;;5490499;26;20021;-77
2024/04/17 03:46:30;;;;;;;1.65;1.27;;;6.40;99.90;;;;;;5490786;26;20384;-76
2024/04/17 03:48:56;;;;;;;2.35;1.60;;;6.40;99.90;;;;;;5488269;26;20026;-74
2024/04/17 03:51:23;;;;;;;3.10;1.88;;;6.50;99.90;;;;;;5490399;26;20026;-76
2024/04/17 03:53:50;;;;;;;2.72;1.63;;;6.50;99.90;;;;;;5490513;26;20031;-76
2024/04/17 03:56:16;;;;;;;2.75;1.67;;;6.50;99.90;;;;;;5491219;26;20475;-76
2024/04/17 03:58:42;;;;;;;4.00;1.70;;;6.50;99.90;;;;;;5490826;26;20022;-76
2024/04/17 04:01:08;;;;;;;2.47;1.73;;;6.50;99.90;;;;;;5487933;26;20045;-75
2024/04/17 04:03:34;;;;;;;2.55;1.80;;;6.50;99.90;;;;;;5490723;26;20035;-78
2024/04/17 04:06:01;;;;;;;2.10;1.48;;;6.50;99.90;;;;;;5488739;26;20038;-75
2024/04/17 04:08:27;;;;;;;2.63;1.60;;;6.60;99.90;;;;;;5490470;26;20030;-75
2024/04/17 04:10:53;;;;;;;3.03;1.77;;;6.60;99.90;;;;;;5490409;26;20027;-75
2024/04/17 04:13:19;;;;;;;2.78;1.77;;;6.60;99.90;;;;;;5486269;26;20030;-75
2024/04/17 04:15:54;;;;;;;2.60;1.52;;;6.60;99.90;;;;;;5488434;26;20039;-75
2024/04/17 04:18:21;;;;;;;3.03;1.38;;;6.60;99.90;;;;;;5490441;26;20026;-75
2024/04/17 04:20:47;;;;;;;2.53;1.80;;;6.60;99.90;;;;;;5489629;26;20026;-74
2024/04/17 04:23:13;;;;;;;3.45;1.77;;;6.60;99.90;;;;;;5488223;26;20030;-75
2024/04/17 04:25:39;;;;;;;2.50;1.75;;;6.70;99.90;;;;;;5489616;26;20031;-74
2024/04/17 04:28:05;;;;;;;2.28;1.58;;;6.80;99.90;;;;;;5490650;26;20035;-74
2024/04/17 04:30:32;;;;;;;2.60;1.80;;;6.80;99.90;;;;;;5489431;26;20035;-74
2024/04/17 04:32:59;;;;;;;3.83;1.90;;;6.80;99.90;;;;;;5490603;26;20018;-73
2024/04/17 04:35:25;;;;;;;3.38;2.05;;;6.80;99.90;;;;;;5489798;26;20029;-74
2024/04/17 04:37:51;;;;;;;3.35;2.03;;;6.70;99.90;;;;;;5485909;26;20030;-74
2024/04/17 04:40:17;;;;;;;3.33;1.80;;;6.70;99.90;;;;;;5484749;26;20471;-73
2024/04/17 04:42:43;;;;;;;2.50;1.65;;;6.70;99.90;;;;;;5487164;26;20026;-74
2024/04/17 04:45:10;;;;;;;2.72;1.70;;;6.70;99.90;;;;;;5485641;26;20026;-73
2024/04/17 04:47:36;;;;;;;2.88;1.90;;;6.80;99.90;;;;;;5486735;26;20026;-74
2024/04/17 04:50:02;;;;;;;3.05;1.95;;;6.90;99.90;;;;;;5485813;26;20359;-74
2024/04/17 04:52:29;;;;;;;3.08;1.95;;;6.90;99.90;;;;;;5486133;26;20022;-73
2024/04/17 04:54:55;;;;;;;5.65;2.28;;;6.90;99.90;;;;;;5482594;26;20030;-74
2024/04/17 04:57:22;;;;;;;3.72;2.05;;;6.90;99.90;;;;;;5485697;26;20460;-74
2024/04/17 04:59:49;;;;;;;3.00;1.73;;;6.90;99.90;;;;;;5488326;26;20029;-74
2024/04/17 05:02:16;;;;;;;3.50;2.22;;;6.90;99.90;;;;;;5489485;26;20460;-73
2024/04/17 05:04:42;;;;;;;2.60;1.80;;;6.80;99.90;;;;;;5489606;26;20026;-74
2024/04/17 05:07:08;;;;;;;4.35;2.17;;;6.80;99.90;;;;;;5489108;26;20026;-73
2024/04/17 05:09:35;;;;;;;3.00;2.20;;;6.80;99.90;;;;;;5487309;26;20022;-74
2024/04/17 05:12:01;;;;;;;3.15;2.05;;;6.80;99.90;;;;;;5490056;26;20026;-74
2024/04/17 05:14:27;;;;;;;2.83;1.90;;;6.90;99.90;;;;;;5486264;26;20053;-75
2024/04/17 05:16:53;;;;;;;3.28;2.25;;;7.00;99.90;;;;;;5491568;26;20038;-75
2024/04/17 05:19:19;;;;;;;3.08;2.00;;;7.10;99.90;;;;;;5492025;26;20033;-75
2024/04/17 05:21:45;;;;;;;2.72;2.15;;;7.10;99.90;;;;;;5492485;26;20043;-75
2024/04/17 05:24:11;;;;;;;3.03;2.20;;;7.20;99.90;;;;;;5492632;26;20468;-75
2024/04/17 05:26:37;;;;;;;2.97;2.10;;;7.10;99.90;;;;;;5490886;26;20376;-75
2024/04/17 05:29:04;;;;;;;3.20;2.03;;;7.20;99.90;;;;;;5490311;26;20034;-73
2024/04/17 05:31:30;;;;;;;3.33;2.15;;;7.20;99.90;;;;;;5492102;26;20034;-75
2024/04/17 05:33:56;;;;;;;3.05;2.17;;;7.20;99.90;;;;;;5489039;26;20045;-75
2024/04/17 05:36:22;;;;;;;4.13;1.95;;;7.30;99.90;;;;;;5487222;26;20034;-76
2024/04/17 05:38:49;;;;;;;2.25;1.80;;;7.30;99.90;;;;;;5492430;26;20041;-75
2024/04/17 05:41:15;;;;;;;2.90;2.00;;;7.30;99.90;;;;;;5488258;26;20468;-74
2024/04/17 05:43:41;;;;;;;3.05;1.92;;;7.30;99.90;;;;;;5484516;26;20002;-74
2024/04/17 05:46:07;;;;;;;4.15;1.90;;;7.40;99.90;;;;;;5488521;26;20029;-73
2024/04/17 05:48:34;;;;;;;4.40;2.28;;;7.50;99.90;;;;;;5488810;26;20030;-74
2024/04/17 05:51:01;;;;;;;2.72;2.00;;;7.50;99.90;;;;;;5489188;26;20033;-74
2024/04/17 05:53:27;;;;;;;3.10;2.00;;;7.50;99.90;;;;;;5489344;26;20492;-75
2024/04/17 05:55:53;;;;;;;7.00;2.45;;;7.60;99.90;;;;;;5491172;26;20034;-74
2024/04/17 05:58:19;;;;;;;4.45;2.00;;;7.70;99.90;;;;;;5491713;26;20030;-73
2024/04/17 06:00:45;;;;;;;5.82;2.20;;;7.80;99.90;;;;;;5491603;26;20038;-73
2024/04/17 06:03:11;;;;;;;4.45;2.22;;;7.90;99.90;;;;;;5491555;26;20037;-72
2024/04/17 06:05:38;;;;;;;3.90;2.47;;;8.00;99.90;;;;;;5491077;26;20038;-73
2024/04/17 06:08:04;;;;;;;3.85;2.20;;;8.10;99.90;;;;;;5490552;26;20484;-73
2024/04/17 06:10:30;;;;;;;3.42;2.38;;;8.20;99.90;;;;;;5490032;26;20042;-72
2024/04/17 06:12:56;;;;;;;2.28;1.98;;;8.30;99.90;;;;;;5487879;26;20023;-73
2024/04/17 06:15:23;;;;;;;3.28;1.90;;;8.30;99.90;;;;;;5488358;26;20026;-73
2024/04/17 06:17:49;;;;;;;1.83;1.50;;;8.40;99.90;;;;;;5488316;26;20479;-71
2024/04/17 06:20:15;;;;;;;1.75;1.17;;;8.40;99.90;;;;;;5488651;26;20031;-70
2024/04/17 06:22:41;;;;;;;2.20;1.50;;;8.40;99.90;;;;;;5488588;26;20029;-70
2024/04/17 06:25:07;;;;;;;2.83;1.40;;;8.40;99.90;;;;;;5487511;26;20026;-71
2024/04/17 06:27:34;;;;;;;1.58;1.10;;;8.50;99.90;;;;;;5481397;26;20038;-71
2024/04/17 06:30:00;;;;;;;1.88;1.23;;;8.50;99.90;;;;;;5466645;26;20375;-70
2024/04/17 06:32:26;;;;;;;1.90;1.30;;;8.60;99.90;;;;;;5491657;26;20045;-72
2024/04/17 06:34:53;;;;;;;5.65;1.40;;;8.60;99.90;;;;;;5491898;26;20033;-70
2024/04/17 06:37:19;;;;;;;1.73;1.25;;;8.70;99.90;;;;;;5491924;26;20357;-72
2024/04/17 06:39:45;;;;;;;2.28;1.40;;;8.90;99.90;;;;;;5491434;26;20029;-73
2024/04/17 06:42:11;;;;;;;2.10;1.33;;;8.90;99.90;;;;;;5490867;26;20561;-72
2024/04/17 06:44:38;;;;;;;1.75;1.23;;;8.90;99.90;;;;;;5491551;26;20026;-71
2024/04/17 06:47:06;;;;;;;1.55;1.30;;;8.90;99.90;;;;;;5491294;26;20480;-72
2024/04/17 06:49:32;;;;;;;2.03;1.00;;;8.90;99.90;;;;;;5491546;26;20029;-72
2024/04/17 06:51:58;;;;;;;1.60;1.20;;;9.00;99.90;;;;;;5491650;26;20026;-73
2024/04/17 06:54:25;;;;;;;1.90;1.20;;;9.00;99.90;;;;;;5489785;26;20035;-72
2024/04/17 06:56:51;;;;;;;1.50;1.10;;;9.10;99.90;;;;;;5488585;26;20034;-73
2024/04/17 06:59:17;;;;;;;1.70;1.23;;;9.20;99.90;;;;;;5491249;26;20026;-72
2024/04/17 07:01:43;;;;;;;1.83;1.15;;;9.20;99.90;;;;;;5491027;26;20026;-70
2024/04/17 07:04:09;;;;;;;1.77;1.30;;;9.30;99.90;;;;;;5489741;26;20030;-70
2024/04/17 07:06:36;;;;;;;2.10;1.40;;;9.40;99.90;;;;;;5491372;26;20038;-72
2024/04/17 07:09:02;;;;;;;2.13;1.70;;;9.40;99.90;;;;;;5488686;26;20035;-75
2024/04/17 07:11:28;;;;;;;1.65;1.20;;;9.40;99.90;;;;;;5490318;26;20042;-71
2024/04/17 07:13:54;;;;;;;2.22;1.50;;;9.40;99.90;;;;;;5489015;26;20037;-72
2024/04/17 07:16:21;;;;;;;1.48;1.20;;;9.40;99.90;;;;;;5488900;26;20476;-72
2024/04/17 07:18:47;;;;;;;1.90;1.40;;;9.40;99.90;;;;;;5489617;26;20480;-72
2024/04/17 07:21:13;;;;;;;1.58;1.17;;;9.50;99.90;;;;;;5490675;26;20036;-74
2024/04/17 07:23:40;;;;;;;2.30;1.40;;;9.50;99.90;;;;;;5490531;26;20371;-71
2024/04/17 07:26:06;;;;;;;1.65;1.30;;;9.60;99.90;;;;;;5490288;26;20031;-78
2024/04/17 07:28:32;;;;;;;1.67;1.40;;;9.60;99.90;;;;;;5487340;26;20034;-71
2024/04/17 07:30:58;;;;;;;2.35;1.50;;;9.80;99.90;;;;;;5491001;26;20038;-71
2024/04/17 07:33:25;;;;;;;1.90;1.40;;;9.70;99.90;;;;;;5489733;26;20038;-76
2024/04/17 07:35:58;;;;;;;1.38;1.02;;;9.60;99.90;;;;;;5489459;26;20469;-74
2024/04/17 07:38:25;;;;;;;1.90;1.40;;;9.80;99.90;;;;;;5490988;26;20377;-74
2024/04/17 07:41:01;;;;;;;1.45;1.35;;;9.80;99.90;;;;;;5489410;26;20047;-75
2024/04/17 07:43:32;;;;;;;1.48;1.25;;;9.90;99.90;;;;;;5490180;26;20057;-72
2024/04/17 07:46:00;;;;;;;1.50;1.20;;;10.00;99.90;;;;;;5490916;26;20039;-73
2024/04/17 07:48:26;;;;;;;2.50;1.30;;;10.10;99.90;;;;;;5490510;26;20038;-74
2024/04/17 07:50:53;;;;;;;1.92;1.67;;;10.10;99.90;;;;;;5488935;26;20472;-73
2024/04/17 07:53:19;;;;;;;1.73;1.33;;;10.20;99.90;;;;;;5490246;26;20037;-72
2024/04/17 07:55:45;;;;;;;1.80;1.40;;;10.20;99.90;;;;;;5490305;26;20047;-72
2024/04/17 07:58:11;;;;;;;1.98;1.33;;;10.20;99.90;;;;;;5490144;26;20034;-72
2024/04/17 08:00:39;;;;;;;2.17;1.40;;;10.20;99.90;;;;;;5489962;26;20042;-72
2024/04/17 08:03:05;;;;;;;1.50;1.33;;;10.30;99.90;;;;;;5490165;26;20030;-73
2024/04/17 08:05:32;;;;;;;1.80;1.50;;;10.30;99.90;;;;;;5489982;26;20070;-72
2024/04/17 08:07:58;;;;;;;1.85;1.35;;;10.30;99.90;;;;;;5490385;26;20034;-73
2024/04/17 08:10:24;;;;;;;2.15;1.30;;;10.20;99.90;;;;;;5487964;26;20034;-72
2024/04/17 08:13:04;;;;;;;2.38;1.73;;;10.20;99.90;;;;;;5489550;26;20030;-72
2024/04/17 08:15:30;;;;;;;2.88;1.70;;;10.20;99.90;;;;;;5489932;26;20042;-72
2024/04/17 08:17:56;;;;;;;2.78;1.75;;;10.20;99.90;;;;;;5489038;26;20022;-69
2024/04/17 08:20:23;;;;;;;2.00;1.67;;;10.30;99.90;;;;;;5486843;26;20026;-70
2024/04/17 08:22:49;;;;;;;2.17;1.75;;;10.30;99.90;;;;;;5452656;26;20050;-71
2024/04/17 08:25:15;;;;;;;2.35;1.70;;;10.40;99.90;;;;;;5451527;26;20022;-70
2024/04/17 08:27:41;;;;;;;2.50;2.20;;;10.50;99.90;;;;;;5452268;26;20382;-70
2024/04/17 08:30:08;;;;;;;2.40;1.73;;;10.60;99.90;;;;;;5469156;26;20029;-70
2024/04/17 08:32:34;;;;;;;2.55;1.98;;;10.60;99.90;;;;;;5486717;26;20033;-71
2024/04/17 08:35:00;;;;;;;1.90;1.55;;;10.60;99.90;;;;;;5489869;26;20023;-70
2024/04/17 08:37:26;;;;;;;2.10;1.70;;;10.60;99.90;;;;;;5489432;26;20039;-71
2024/04/17 08:39:52;;;;;;;2.55;1.65;;;10.70;99.90;;;;;;5489894;26;20480;-71
2024/04/17 08:42:25;;;;;;;2.00;1.52;;;10.90;99.90;;;;;;5489289;26;20026;-71
2024/04/17 08:44:52;;;;;;;2.25;1.80;;;11.10;99.90;;;;;;5489633;26;20042;-71
2024/04/17 08:47:20;;;;;;;1.80;1.50;;;11.20;99.90;;;;;;5489158;26;20022;-72
2024/04/17 08:49:47;;;;;;;1.67;1.45;;;11.30;99.90;;;;;;5489722;26;20035;-71
2024/04/17 08:52:16;;;;;;;1.50;1.30;;;11.30;99.90;;;;;;5489834;26;20461;-71
2024/04/17 08:54:43;;;;;;;2.03;1.30;;;11.30;99.90;;;;;;5489753;26;20034;-71
2024/04/17 08:57:11;;;;;;;2.05;1.48;;;11.40;99.90;;;;;;5488869;26;20026;-72
2024/04/17 08:59:37;;;;;;;1.17;0.98;;;11.50;99.90;;;;;;5486866;26;20033;-71
2024/04/17 09:02:07;;;;;;;1.65;1.23;;;11.50;99.90;;;;;;5488393;26;20030;-72
2024/04/17 09:04:33;;;;;;;2.67;1.58;;;11.60;99.90;;;;;;5489585;26;20022;-71
2024/04/17 09:07:00;;;;;;;1.70;1.50;;;11.50;99.90;;;;;;5489513;26;20034;-71
2024/04/17 09:09:26;;;;;;;2.15;1.65;;;11.50;99.90;;;;;;5489502;26;20025;-70
2024/04/17 09:11:53;;;;;;;2.80;1.88;;;11.50;99.90;;;;;;5488095;26;20376;-71
2024/04/17 09:14:19;;;;;;;3.15;1.80;;;11.50;99.90;;;;;;5489017;26;20510;-71
2024/04/17 09:16:46;;;;;;;2.92;1.90;;;11.50;99.90;;;;;;5489281;26;20026;-71
2024/04/17 09:19:12;;;;;;;2.42;1.77;;;11.60;99.90;;;;;;5489070;26;20034;-72
2024/04/17 09:21:39;;;;;;;2.53;2.00;;;11.70;99.90;;;;;;5488717;26;20468;-73
2024/04/17 09:24:06;;;;;;;2.97;2.05;;;11.80;99.90;;;;;;5486335;26;20026;-72
2024/04/17 09:26:32;;;;;;;3.65;2.25;;;12.00;99.90;;;;;;5487918;26;20026;-72
2024/04/17 09:28:58;;;;;;;3.28;2.15;;;12.20;99.90;;;;;;5486458;26;20464;-71
2024/04/17 09:31:24;;;;;;;2.30;1.92;;;12.50;99.90;;;;;;5486596;26;20038;-71
2024/04/17 09:33:51;;;;;;;3.17;1.90;;;12.60;99.90;;;;;;5488665;26;20039;-70
2024/04/17 09:36:17;;;;;;;3.28;2.05;;;12.60;99.90;;;;;;5488896;26;20041;-70
2024/04/17 09:38:43;;;;;;;4.28;2.20;;;12.60;99.90;;;;;;5488960;26;20034;-70
2024/04/17 09:41:10;;;;;;;3.45;2.30;;;12.50;99.90;;;;;;5488106;26;20022;-72
2024/04/17 09:43:45;;;;;;;4.50;2.45;;;12.30;99.90;;;;;;5488901;26;20484;-71
2024/04/17 09:46:14;;;;;;;3.13;2.30;;;12.20;99.90;;;;;;5486342;26;20039;-71
2024/04/17 09:48:41;;;;;;;2.63;2.00;;;12.00;99.90;;;;;;5488552;26;20477;-70
2024/04/17 09:51:10;;;;;;;4.18;2.67;;;12.00;99.90;;;;;;5488851;26;20026;-71
2024/04/17 09:53:59;;;;;;;4.30;2.42;;;11.90;99.90;;;;;;5488598;26;20030;-71
2024/04/17 09:56:26;;;;;;;5.55;3.92;;;11.90;99.90;;;;;;5488056;26;20042;-71
2024/04/17 09:58:53;;;;;;;3.17;2.28;;;11.80;99.90;;;;;;5488663;26;20030;-71
2024/04/17 10:01:21;;;;;;;3.00;2.20;;;11.90;99.90;;;;;;5491852;26;20479;-71
2024/04/17 10:03:48;;;;;;;3.20;2.55;;;12.00;99.90;;;;;;5492347;26;20022;-71
2024/04/17 10:06:16;;;;;;;3.75;2.28;;;12.10;99.90;;;;;;5490372;26;20026;-71
2024/04/17 10:08:44;;;;;;;3.38;2.75;;;12.20;99.90;;;;;;5488618;26;20411;-72
2024/04/17 10:11:11;;;;;;;4.55;2.33;;;12.40;99.90;;;;;;5489162;26;20030;-73
2024/04/17 10:13:38;;;;;;;5.20;1.98;;;12.60;99.90;;;;;;5489957;26;20030;-72
2024/04/17 10:16:05;;;;;;;2.67;2.25;;;12.70;99.90;;;;;;5487289;26;20022;-72
2024/04/17 10:18:31;;;;;;;3.95;2.55;;;12.70;99.90;;;;;;5489930;26;20026;-72
2024/04/17 10:20:57;;;;;;;3.30;2.60;;;12.80;99.90;;;;;;5488069;26;20026;-71
2024/04/17 10:23:26;;;;;;;3.45;2.70;;;12.90;99.90;;;;;;5491852;26;20465;-72
2024/04/17 10:25:57;;;;;;;5.43;2.72;;;13.00;99.90;;;;;;5491395;26;20034;-71
2024/04/17 10:28:27;;;;;;;2.80;1.80;;;13.10;99.90;;;;;;5491827;26;20038;-71
2024/04/17 10:30:55;;;;;;;2.50;1.98;;;13.30;99.90;;;;;;5491562;26;20370;-71
2024/04/17 10:33:28;;;;;;;1.92;1.58;;;13.50;99.90;;;;;;5489504;26;20022;-72
2024/04/17 10:35:59;;;;;;;3.20;2.00;;;13.60;99.90;;;;;;5491620;26;20022;-72
2024/04/17 10:38:26;;;;;;;1.88;1.58;;;13.60;99.90;;;;;;5491861;26;20022;-71
2024/04/17 10:40:56;;;;;;;3.63;2.00;;;13.60;99.90;;;;;;5490971;26;20035;-72
2024/04/17 10:43:23;;;;;;;2.90;1.85;;;13.60;99.90;;;;;;5491833;26;20035;-72
2024/04/17 10:45:57;;;;;;;2.50;1.70;;;13.60;99.90;;;;;;5491547;26;20029;-72
2024/04/17 10:48:24;;;;;;;2.90;1.83;;;13.50;99.90;;;;;;5491683;26;20038;-71
2024/04/17 10:50:50;;;;;;;2.83;1.60;;;13.50;99.90;;;;;;5491581;26;20030;-71
2024/04/17 10:53:18;;;;;;;3.42;2.40;;;13.50;99.90;;;;;;5491499;26;20032;-71
2024/04/17 10:55:45;;;;;;;3.90;2.10;;;13.60;99.90;;;;;;5489952;26;20030;-70
2024/04/17 10:58:12;;;;;;;6.03;1.90;;;13.70;99.90;;;;;;5491508;26;20042;-71
2024/04/17 11:00:39;;;;;;;3.45;2.05;;;13.80;99.90;;;;;;5490541;26;20039;-74
2024/04/17 11:03:06;;;;;;;3.83;2.30;;;13.80;99.90;;;;;;5488972;26;20022;-73
2024/04/17 11:05:32;;;;;;;2.75;2.17;;;13.80;99.90;;;;;;5489100;26;20468;-71
2024/04/17 11:07:59;;;;;;;4.20;2.33;;;13.80;99.90;;;;;;5491367;26;20029;-71
2024/04/17 11:10:25;;;;;;;3.17;2.13;;;13.90;99.90;;;;;;5490373;26;20026;-72
2024/04/17 11:12:52;;;;;;;6.93;2.50;;;13.90;99.90;;;;;;5491176;26;20022;-76
2024/04/17 11:15:18;;;;;;;5.35;2.63;;;13.90;99.90;;;;;;5491119;26;20022;-75
2024/04/17 11:17:44;;;;;;;2.83;2.10;;;13.80;99.90;;;;;;5491083;26;20030;-77
2024/04/17 11:20:12;;;;;;;3.28;1.92;;;13.60;99.90;;;;;;5490993;26;20032;-78
2024/04/17 11:22:39;;;;;;;3.33;2.17;;;13.60;99.90;;;;;;5491043;26;20371;-79
2024/04/17 11:25:12;;;;;;;3.58;2.10;;;13.50;99.90;;;;;;5488096;26;20038;-80
2024/04/17 11:27:38;;;;;;;2.60;1.95;;;13.50;99.90;;;;;;5491023;26;20038;-80
2024/04/17 11:30:16;;;;;;;2.58;1.98;;;13.40;99.90;;;;;;5489000;26;20030;-80
2024/04/17 11:32:42;;;;;;;3.60;2.22;;;13.30;99.50;;;;;;5490934;26;20026;-76
2024/04/17 11:35:17;;;;;;;4.32;2.28;;;13.20;99.90;;;;;;5491005;26;20029;-77
2024/04/17 11:37:54;;;;;;;5.30;2.20;;;13.10;99.20;;;;;;5489624;26;20026;-76
2024/04/17 11:40:21;;;;;;;3.00;2.22;;;13.10;99.70;;;;;;5487849;26;20035;-77
2024/04/17 11:42:47;;;;;;;3.10;2.33;;;13.10;99.90;;;;;;5490823;26;20026;-77
2024/04/17 11:45:13;;;;;;;2.75;1.92;;;13.10;99.90;;;;;;5490868;26;20488;-77
2024/04/17 11:47:40;;;;;;;3.45;2.35;;;13.10;99.90;;;;;;5490817;26;20026;-82
2024/04/17 11:50:10;;;;;;;3.17;2.35;;;13.10;99.90;;;;;;5490122;26;20033;-81
2024/04/17 11:52:37;;;;;;;4.65;2.78;;;13.10;99.90;;;;;;5485261;26;20037;-83
2024/04/17 11:55:03;;;;;;;4.45;2.83;;;13.20;99.90;;;;;;5484229;26;20057;-83
2024/04/17 11:57:30;;;;;;;3.80;2.33;;;13.30;99.90;;;;;;5484490;26;19998;-84
2024/04/17 11:59:56;;;;;;;4.75;2.92;;;13.50;99.90;;;;;;5483303;26;20339;-83
2024/04/17 12:02:25;;;;;;;6.10;2.50;;;13.60;99.90;;;;;;5485603;26;20476;-84
2024/04/17 12:04:51;;;;;;;3.92;2.45;;;13.90;99.90;;;;;;5486803;26;20072;-76
2024/04/17 12:07:18;;;;;;;3.63;2.40;;;14.30;99.90;;;;;;5487985;26;20026;-77
2024/04/17 12:09:48;;;;;;;2.05;1.67;;;14.60;99.90;;;;;;5488768;26;20026;-76
2024/04/17 12:12:15;;;;;;;3.08;2.05;;;14.70;98.90;;;;;;5487678;26;20025;-76
2024/04/17 12:14:42;;;;;;;3.38;2.20;;;14.70;99.40;;;;;;5489324;26;20034;-74
2024/04/17 12:17:08;;;;;;;29.08;16.40;;;14.70;99.30;;;;;;5490194;26;20038;-73
2024/04/17 12:19:34;;;;;;;38.15;17.17;;;14.60;98.80;;;;;;5490141;26;20384;-74
2024/04/17 12:22:00;;;;;;;26.73;13.75;;;14.50;98.60;;;;;;5489567;26;20026;-74
2024/04/17 12:27:11;;;;;;;226.55;119.22;;;14.40;99.00;;;;;;5490241;26;20022;-73
2024/04/17 12:29:38;;;;;;;138.70;73.97;;;14.40;99.10;;;;;;5489917;26;20472;-74
2024/04/17 12:32:04;;;;;;;222.30;115.18;;;14.30;98.70;;;;;;5489705;26;20040;-74
2024/04/17 12:34:31;;;;;;;110.03;63.92;;;14.30;98.60;;;;;;5489810;26;20041;-74
2024/04/17 12:36:57;;;;;;;24.13;17.00;;;14.30;98.90;;;;;;5489690;26;20037;-74
2024/04/17 12:39:24;;;;;;;162.93;82.38;;;14.50;99.00;;;;;;5489235;26;20030;-74
2024/04/17 12:41:50;;;;;;;371.08;144.43;;;14.60;98.20;;;;;;5489063;26;20034;-75
2024/04/17 12:44:16;;;;;;;150.30;62.30;;;14.70;98.20;;;;;;5490002;26;20022;-75
2024/04/17 12:46:42;;;;;;;719.08;352.40;;;14.90;98.40;;;;;;5486839;26;20043;-74
2024/04/17 12:49:08;;;;;;;127.78;63.85;;;15.00;98.20;;;;;;5489649;26;20030;-74
2024/04/17 12:51:34;;;;;;;633.40;363.77;;;15.10;98.00;;;;;;5489657;26;20353;-74